createdAt,value
2022-08-11T00:00:21.072Z,4.65
2022-08-11T00:03:08.882Z,4.28
2022-08-11T00:05:56.537Z,4.13
2022-08-11T00:08:42.509Z,3.75
2022-08-11T00:11:41.545Z,4.35
2022-08-11T00:14:36.746Z,3.85
2022-08-11T00:17:28.142Z,3.97
2022-08-11T00:20:16.941Z,3.83
2022-08-11T00:23:08.594Z,3.80
2022-08-11T00:25:54.456Z,3.92
2022-08-11T00:28:41.542Z,3.65
2022-08-11T00:31:30.005Z,3.65
2022-08-11T00:34:18.519Z,3.72
2022-08-11T00:37:07.687Z,3.40
2022-08-11T00:39:55.004Z,3.55
2022-08-11T00:43:03.483Z,3.40
2022-08-11T00:46:03.824Z,3.72
2022-08-11T00:48:57.859Z,4.10
2022-08-11T00:52:07.529Z,3.55
2022-08-11T00:55:04.533Z,3.58
2022-08-11T00:58:10.696Z,3.22
2022-08-11T01:01:09.600Z,3.50
2022-08-11T01:04:14.604Z,3.70
2022-08-11T01:08:00.446Z,3.83
2022-08-11T01:11:16.057Z,4.45
2022-08-11T01:14:18.764Z,5.18
2022-08-11T01:17:57.151Z,5.60
2022-08-11T01:21:03.896Z,6.60
2022-08-11T01:24:16.342Z,6.20
2022-08-11T01:27:18.812Z,5.97
2022-08-11T01:30:30.058Z,5.68
2022-08-11T01:33:45.522Z,5.95
2022-08-11T01:36:44.142Z,5.80
2022-08-11T01:39:51.378Z,6.85
2022-08-11T01:43:00.972Z,6.63
2022-08-11T01:45:50.252Z,6.72
2022-08-11T01:48:49.778Z,6.65
2022-08-11T01:51:51.940Z,5.70
2022-08-11T01:54:37.139Z,6.80
2022-08-11T01:57:38.625Z,7.55
2022-08-11T02:00:28.929Z,8.07
2022-08-11T02:03:45.719Z,7.95
2022-08-11T02:06:56.616Z,8.50
2022-08-11T02:09:56.513Z,8.60
2022-08-11T02:12:53.051Z,8.07
2022-08-11T02:15:56.763Z,7.55
2022-08-11T02:19:08.782Z,6.97
2022-08-11T02:22:24.910Z,7.22
2022-08-11T02:25:22.445Z,6.82
2022-08-11T02:28:34.666Z,7.00
2022-08-11T02:32:10.980Z,6.97
2022-08-11T02:35:13.133Z,5.87
2022-08-11T02:38:18.581Z,6.10
2022-08-11T02:41:34.586Z,5.45
2022-08-11T02:44:49.163Z,5.78
2022-08-11T02:48:41.082Z,5.55
2022-08-11T02:51:39.259Z,4.75
2022-08-11T02:54:35.985Z,5.07
2022-08-11T02:57:29.453Z,4.32
2022-08-11T03:00:17.703Z,5.13
2022-08-11T03:03:18.326Z,5.47
2022-08-11T03:06:12.510Z,4.40
2022-08-11T03:09:18.021Z,4.35
2022-08-11T03:12:53.130Z,4.03
2022-08-11T03:16:40.207Z,3.95
2022-08-11T03:19:57.188Z,4.25
2022-08-11T03:23:20.165Z,4.28
2022-08-11T03:26:38.538Z,4.25
2022-08-11T03:29:34.270Z,3.72
2022-08-11T03:32:29.875Z,3.60
2022-08-11T03:35:21.545Z,4.20
2022-08-11T03:38:15.259Z,3.80
2022-08-11T03:42:01.259Z,4.32
2022-08-11T03:45:02.196Z,3.85
2022-08-11T03:47:55.614Z,3.88
2022-08-11T03:50:55.668Z,3.60
2022-08-11T03:53:56.138Z,3.20
2022-08-11T03:56:58.556Z,3.67
2022-08-11T04:00:20.654Z,5.35
2022-08-11T04:03:08.538Z,5.40
2022-08-11T04:06:30.499Z,5.38
2022-08-11T04:09:46.163Z,5.35
2022-08-11T04:13:03.899Z,4.63
2022-08-11T04:16:11.624Z,4.15
2022-08-11T04:19:39.989Z,3.88
2022-08-11T04:22:49.541Z,3.55
2022-08-11T04:26:15.865Z,3.50
2022-08-11T04:29:36.045Z,2.90
2022-08-11T04:32:37.197Z,2.63
2022-08-11T04:35:30.606Z,2.97
2022-08-11T04:38:34.384Z,3.45
2022-08-11T04:42:31.024Z,3.22
2022-08-11T04:45:33.757Z,3.40
2022-08-11T04:49:27.507Z,3.47
2022-08-11T04:52:38.462Z,2.85
2022-08-11T04:55:48.911Z,3.50
2022-08-11T04:59:37.233Z,3.63
2022-08-11T05:02:38.026Z,5.00
2022-08-11T05:06:06.287Z,5.50
2022-08-11T05:08:54.452Z,5.93
2022-08-11T05:12:01.980Z,4.57
2022-08-11T05:15:11.143Z,4.40
2022-08-11T05:18:36.045Z,3.35
2022-08-11T05:21:45.298Z,3.13
2022-08-11T05:25:00.871Z,4.65
2022-08-11T05:28:29.342Z,3.92
2022-08-11T05:31:35.196Z,3.90
2022-08-11T05:34:54.868Z,4.50
2022-08-11T05:38:03.258Z,4.20
2022-08-11T05:41:12.486Z,5.72
2022-08-11T05:44:20.897Z,5.65
2022-08-11T05:47:26.535Z,4.65
2022-08-11T05:50:33.101Z,4.53
2022-08-11T05:53:45.727Z,4.95
2022-08-11T05:56:34.170Z,5.03
2022-08-11T05:59:19.746Z,4.82
2022-08-11T06:02:07.471Z,5.38
2022-08-11T06:04:58.019Z,4.80
2022-08-11T06:07:48.564Z,5.28
2022-08-11T06:10:41.281Z,6.28
2022-08-11T06:13:27.570Z,6.55
2022-08-11T06:16:18.033Z,9.07
2022-08-11T06:19:04.297Z,9.80
2022-08-11T06:21:51.875Z,11.55
2022-08-11T06:24:41.601Z,12.25
2022-08-11T06:27:30.393Z,14.48
2022-08-11T06:30:15.442Z,13.60
2022-08-11T06:33:01.727Z,14.07
2022-08-11T06:36:07.968Z,16.67
2022-08-11T06:38:59.245Z,15.80
2022-08-11T06:42:13.829Z,18.63
2022-08-11T06:45:11.958Z,18.23
2022-08-11T06:48:00.735Z,18.63
2022-08-11T06:51:12.545Z,18.40
2022-08-11T06:54:05.666Z,18.63
2022-08-11T06:57:29.813Z,17.08
2022-08-11T07:00:29.361Z,17.65
2022-08-11T07:03:19.611Z,16.98
2022-08-11T07:06:34.504Z,16.13
2022-08-11T07:10:09.699Z,15.63
2022-08-11T07:13:38.169Z,14.77
2022-08-11T07:16:28.567Z,14.02
2022-08-11T07:19:36.098Z,15.43
2022-08-11T07:22:43.269Z,14.30
2022-08-11T07:25:50.382Z,14.40
2022-08-11T07:28:58.244Z,14.55
2022-08-11T07:31:53.986Z,12.82
2022-08-11T07:34:45.374Z,13.13
2022-08-11T07:37:33.845Z,11.88
2022-08-11T07:40:23.810Z,12.30
2022-08-11T07:43:09.812Z,12.32
2022-08-11T07:46:14.625Z,11.45
2022-08-11T07:49:21.268Z,11.90
2022-08-11T07:52:26.523Z,12.00
2022-08-11T07:55:17.208Z,12.93
2022-08-11T07:58:21.695Z,11.20
2022-08-11T08:01:30.421Z,11.43
2022-08-11T08:04:36.730Z,10.57
2022-08-11T08:07:41.929Z,11.57
2022-08-11T08:10:46.761Z,11.63
2022-08-11T08:13:53.082Z,11.20
2022-08-11T08:16:58.066Z,11.80
2022-08-11T08:19:47.873Z,10.70
2022-08-11T08:22:38.752Z,11.13
2022-08-11T08:25:29.516Z,11.70
2022-08-11T08:28:20.768Z,11.27
2022-08-11T08:31:06.390Z,10.57
2022-08-11T08:33:52.506Z,10.88
2022-08-11T08:36:39.871Z,10.32
2022-08-11T08:39:24.914Z,9.73
2022-08-11T08:42:13.193Z,10.07
2022-08-11T08:45:15.741Z,10.15
2022-08-11T08:48:08.601Z,8.90
2022-08-11T08:51:21.914Z,9.30
2022-08-11T08:54:11.351Z,7.70
2022-08-11T08:56:58.855Z,9.20
2022-08-11T08:59:48.742Z,8.50
2022-08-11T09:02:35.327Z,8.63
2022-08-11T09:05:21.351Z,7.82
2022-08-11T09:08:06.640Z,7.43
2022-08-11T09:11:14.032Z,7.88
2022-08-11T09:14:05.059Z,7.70
2022-08-11T09:16:53.562Z,7.55
2022-08-11T09:19:38.881Z,6.70
2022-08-11T09:22:42.927Z,6.05
2022-08-11T09:25:50.262Z,5.85
2022-08-11T09:28:37.554Z,6.22
2022-08-11T09:31:22.906Z,4.88
2022-08-11T09:34:11.162Z,4.65
2022-08-11T09:37:28.551Z,5.10
2022-08-11T09:40:31.055Z,4.45
2022-08-11T09:43:37.569Z,4.60
2022-08-11T09:46:29.189Z,5.18
2022-08-11T09:49:14.254Z,4.57
2022-08-11T09:52:05.330Z,4.63
2022-08-11T09:54:51.425Z,4.50
2022-08-11T09:57:58.349Z,4.18
2022-08-11T10:00:47.645Z,4.38
2022-08-11T10:03:40.254Z,3.47
2022-08-11T10:06:47.452Z,3.97
2022-08-11T10:09:54.526Z,3.25
2022-08-11T10:12:46.658Z,3.58
2022-08-11T10:15:38.134Z,3.47
2022-08-11T10:18:42.912Z,3.17
2022-08-11T10:21:36.169Z,3.25
2022-08-11T10:24:40.446Z,2.90
2022-08-11T10:28:30.739Z,2.88
2022-08-11T10:30:51.801Z,2.85
2022-08-11T10:33:59.482Z,2.55
2022-08-11T10:36:49.513Z,2.45
2022-08-11T10:39:35.831Z,2.40
2022-08-11T10:42:57.455Z,2.70
2022-08-11T10:46:05.258Z,2.28
2022-08-11T10:48:50.724Z,2.40
2022-08-11T10:51:58.581Z,2.42
2022-08-11T10:55:02.984Z,1.98
2022-08-11T10:58:07.256Z,1.98
2022-08-11T11:00:56.859Z,2.15
2022-08-11T11:03:43.572Z,2.20
2022-08-11T11:06:56.163Z,2.35
2022-08-11T11:09:47.229Z,2.15
2022-08-11T11:13:06.449Z,2.20
2022-08-11T11:16:30.757Z,2.00
2022-08-11T11:19:23.916Z,2.33
2022-08-11T11:22:30.869Z,2.17
2022-08-11T11:25:24.813Z,2.03
2022-08-11T11:28:24.320Z,1.95
2022-08-11T11:31:58.470Z,1.63
2022-08-11T11:35:04.370Z,2.05
2022-08-11T11:37:56.101Z,1.75
2022-08-11T11:41:10.552Z,1.70
2022-08-11T11:43:57.291Z,1.98
2022-08-11T11:46:47.337Z,1.95
2022-08-11T11:49:33.312Z,2.00
2022-08-11T11:52:21.782Z,1.95
2022-08-11T11:55:07.775Z,1.35
2022-08-11T11:58:18.656Z,1.55
2022-08-11T12:01:16.875Z,1.50
2022-08-11T12:04:06.080Z,1.60
2022-08-11T12:07:11.868Z,2.13
2022-08-11T12:09:58.432Z,1.55
2022-08-11T12:13:04.083Z,1.73
2022-08-11T12:16:32.075Z,1.83
2022-08-11T12:19:00.622Z,1.80
2022-08-11T12:22:05.273Z,2.00
2022-08-11T12:25:09.020Z,1.58
2022-08-11T12:27:55.874Z,1.63
2022-08-11T12:33:34.132Z,1.88
2022-08-11T12:36:21.453Z,1.58
2022-08-11T12:39:23.006Z,1.98
2022-08-11T12:42:30.210Z,1.83
2022-08-11T12:45:27.875Z,1.50
2022-08-11T12:48:59.910Z,1.35
2022-08-11T12:52:14.580Z,1.60
2022-08-11T12:55:42.881Z,1.48
2022-08-11T12:58:49.670Z,1.35
2022-08-11T13:01:55.919Z,1.50
2022-08-11T13:05:01.512Z,1.38
2022-08-11T13:07:50.675Z,1.50
2022-08-11T13:10:56.300Z,1.30
2022-08-11T13:13:53.994Z,1.35
2022-08-11T13:17:01.983Z,1.45
2022-08-11T13:19:49.790Z,1.38
2022-08-11T13:22:36.872Z,1.50
2022-08-11T13:25:25.508Z,1.58
2022-08-11T13:28:12.603Z,1.50
2022-08-11T13:31:14.866Z,1.55
2022-08-11T13:34:01.770Z,1.33
2022-08-11T13:36:52.993Z,1.40
2022-08-11T13:39:38.222Z,1.70
2022-08-11T13:42:23.339Z,1.48
2022-08-11T13:45:09.743Z,1.45
2022-08-11T13:48:00.033Z,1.20
2022-08-11T13:51:04.556Z,1.75
2022-08-11T13:53:49.897Z,1.40
2022-08-11T13:56:40.972Z,2.03
2022-08-11T13:59:29.831Z,1.60
2022-08-11T14:02:22.096Z,1.60
2022-08-11T14:05:17.384Z,1.50
2022-08-11T14:08:07.811Z,1.40
2022-08-11T14:12:23.159Z,1.50
2022-08-11T14:14:26.472Z,1.55
2022-08-11T14:17:13.779Z,1.42
2022-08-11T14:20:39.737Z,1.60
2022-08-11T14:23:33.854Z,1.33
2022-08-11T14:26:24.305Z,1.50
2022-08-11T14:32:12.061Z,1.40
2022-08-11T14:34:58.887Z,1.27
2022-08-11T14:37:44.430Z,1.67
2022-08-11T14:40:47.993Z,1.70
2022-08-11T14:44:13.051Z,1.40
2022-08-11T14:47:23.375Z,1.50
2022-08-11T14:50:14.561Z,1.52
2022-08-11T14:53:04.909Z,1.40
2022-08-11T14:56:10.184Z,1.60
2022-08-11T14:58:57.758Z,1.30
2022-08-11T15:02:04.370Z,1.50
2022-08-11T15:04:51.018Z,1.75
2022-08-11T15:07:37.599Z,1.30
2022-08-11T15:10:23.082Z,1.55
2022-08-11T15:13:08.601Z,1.42
2022-08-11T15:16:12.176Z,1.52
2022-08-11T15:18:58.922Z,1.35
2022-08-11T15:22:02.630Z,1.58
2022-08-11T15:24:47.937Z,1.50
2022-08-11T15:27:52.843Z,1.73
2022-08-11T15:30:57.474Z,1.80
2022-08-11T15:34:03.761Z,1.50
2022-08-11T15:37:09.445Z,1.48
2022-08-11T15:40:31.620Z,1.80
2022-08-11T15:43:46.149Z,1.75
2022-08-11T15:46:45.148Z,1.60
2022-08-11T15:50:11.421Z,1.45
2022-08-11T15:52:56.091Z,1.60
2022-08-11T15:55:43.431Z,1.80
2022-08-11T15:59:10.702Z,2.35
2022-08-11T16:02:32.697Z,2.10
2022-08-11T16:05:45.228Z,1.92
2022-08-11T16:08:32.611Z,2.10
2022-08-11T16:11:21.383Z,2.03
2022-08-11T16:14:29.590Z,1.50
2022-08-11T16:17:18.588Z,1.92
2022-08-11T16:20:05.574Z,1.80
2022-08-11T16:23:00.333Z,1.98
2022-08-11T16:27:06.891Z,1.95
2022-08-11T16:28:57.798Z,1.60
2022-08-11T16:32:03.865Z,2.28
2022-08-11T16:35:18.853Z,1.65
2022-08-11T16:38:24.600Z,2.00
2022-08-11T16:41:13.753Z,1.70
2022-08-11T16:44:17.509Z,2.03
2022-08-11T16:50:25.505Z,2.10
2022-08-11T16:53:10.705Z,1.95
2022-08-11T16:56:00.029Z,2.05
2022-08-11T16:59:08.965Z,1.90
2022-08-11T17:05:10.122Z,2.10
2022-08-11T17:08:16.948Z,2.00
2022-08-11T17:11:21.953Z,2.20
2022-08-11T17:14:12.945Z,1.90
2022-08-11T17:17:00.945Z,2.00
2022-08-11T17:20:40.770Z,2.10
2022-08-11T17:23:15.011Z,1.98
2022-08-11T17:26:04.401Z,2.15
2022-08-11T17:28:56.307Z,2.10
2022-08-11T17:32:00.275Z,2.30
2022-08-11T17:35:05.168Z,2.20
2022-08-11T17:37:52.361Z,2.20
2022-08-11T17:41:00.420Z,1.60
2022-08-11T17:44:06.269Z,2.03
2022-08-11T17:47:10.197Z,2.30
2022-08-11T17:49:56.274Z,2.13
2022-08-11T17:53:19.916Z,2.15
2022-08-11T17:56:24.824Z,2.20
2022-08-11T17:59:32.246Z,2.10
2022-08-11T18:02:40.052Z,2.00
2022-08-11T18:05:29.442Z,1.92
2022-08-11T18:12:11.473Z,1.83
2022-08-11T18:15:06.985Z,2.30
2022-08-11T18:18:10.909Z,2.03
2022-08-11T18:21:14.671Z,2.25
2022-08-11T18:24:23.409Z,2.40
2022-08-11T18:27:30.147Z,2.15
2022-08-11T18:30:34.969Z,2.00
2022-08-11T18:34:05.814Z,2.10
2022-08-11T18:37:36.722Z,3.15
2022-08-11T18:40:47.734Z,2.60
2022-08-11T18:43:55.953Z,2.25
2022-08-11T18:47:08.073Z,2.30
2022-08-11T18:50:15.018Z,2.00
2022-08-11T18:53:32.721Z,1.98
2022-08-11T18:56:38.530Z,1.95
2022-08-11T18:59:45.774Z,2.83
2022-08-11T19:02:51.353Z,2.35
2022-08-11T19:06:35.982Z,1.95
2022-08-11T19:09:25.998Z,2.30
2022-08-11T19:12:31.172Z,2.88
2022-08-11T19:15:37.225Z,2.20
2022-08-11T19:18:41.788Z,2.88
2022-08-11T19:21:48.292Z,2.45
2022-08-11T19:24:55.619Z,2.25
2022-08-11T19:28:00.394Z,2.50
2022-08-11T19:31:05.233Z,2.58
2022-08-11T19:34:11.000Z,2.65
2022-08-11T19:37:15.222Z,2.45
2022-08-11T19:40:28.067Z,2.88
2022-08-11T19:43:32.214Z,2.22
2022-08-11T19:46:41.755Z,2.70
2022-08-11T19:52:50.470Z,5.60
2022-08-11T19:55:54.550Z,4.30
2022-08-11T19:58:58.752Z,3.67
2022-08-11T20:02:13.307Z,3.05
2022-08-11T20:05:17.984Z,2.95
2022-08-11T20:08:23.815Z,2.70
2022-08-11T20:11:30.777Z,3.15
2022-08-11T20:14:37.682Z,3.03
2022-08-11T20:17:45.027Z,3.00
2022-08-11T20:20:49.690Z,2.90
2022-08-11T20:23:54.903Z,2.70
2022-08-11T20:26:58.745Z,2.58
2022-08-11T20:30:04.045Z,3.00
2022-08-11T20:33:09.338Z,3.28
2022-08-11T20:36:13.117Z,3.35
2022-08-11T20:39:18.609Z,3.00
2022-08-11T20:42:28.439Z,2.80
2022-08-11T20:45:35.887Z,3.05
2022-08-11T20:48:41.535Z,2.80
2022-08-11T20:51:46.357Z,3.10
2022-08-11T20:54:52.632Z,3.40
2022-08-11T20:58:04.039Z,3.50
2022-08-11T21:01:19.051Z,3.30
2022-08-11T21:04:28.025Z,3.38
2022-08-11T21:07:34.836Z,3.50
2022-08-11T21:10:40.864Z,4.00
2022-08-11T21:13:53.006Z,3.40
2022-08-11T21:17:00.328Z,3.47
2022-08-11T21:20:16.931Z,3.40
2022-08-11T21:23:28.326Z,3.75
2022-08-11T21:26:36.251Z,3.75
2022-08-11T21:29:42.070Z,3.40
2022-08-11T21:32:47.994Z,3.13
2022-08-11T21:35:51.833Z,3.33
2022-08-11T21:38:56.039Z,3.30
2022-08-11T21:41:59.822Z,3.40
2022-08-11T21:45:04.044Z,3.42
2022-08-11T21:48:10.024Z,4.40
2022-08-11T21:51:13.813Z,3.70
2022-08-11T21:54:19.029Z,3.78
2022-08-11T21:57:24.430Z,3.72
2022-08-11T22:00:28.662Z,4.00
2022-08-11T22:03:36.519Z,4.05
2022-08-11T22:06:54.087Z,4.60
2022-08-11T22:09:57.968Z,4.75
2022-08-11T22:13:01.992Z,4.57
2022-08-11T22:16:05.910Z,5.03
2022-08-11T22:19:10.724Z,4.55
2022-08-11T22:22:17.409Z,4.47
2022-08-11T22:25:22.491Z,4.93
2022-08-11T22:28:27.369Z,4.03
2022-08-11T22:31:31.746Z,4.32
2022-08-11T22:34:39.197Z,5.22
2022-08-11T22:37:58.705Z,4.95
2022-08-11T22:41:03.081Z,4.47
2022-08-11T22:44:07.024Z,4.63
2022-08-11T22:47:13.976Z,4.60
2022-08-11T22:50:23.555Z,5.82
2022-08-11T22:53:27.357Z,5.32
2022-08-11T22:56:52.507Z,5.68
2022-08-11T22:59:57.782Z,5.10
2022-08-11T23:03:01.613Z,4.53
2022-08-11T23:06:05.983Z,4.75
2022-08-11T23:09:11.367Z,5.82
2022-08-11T23:12:16.287Z,4.47
2022-08-11T23:15:19.943Z,5.25
2022-08-11T23:18:24.891Z,5.32
2022-08-11T23:21:32.244Z,4.97
2022-08-11T23:24:36.585Z,4.95
2022-08-11T23:27:42.317Z,4.55
2022-08-11T23:30:48.090Z,4.55
2022-08-11T23:33:55.467Z,4.38
2022-08-11T23:36:59.413Z,4.50
2022-08-11T23:40:03.144Z,4.15
2022-08-11T23:43:06.919Z,4.70
2022-08-11T23:46:10.702Z,4.70
2022-08-11T23:49:17.513Z,4.60
2022-08-11T23:52:22.425Z,4.47
2022-08-11T23:55:26.669Z,4.93
2022-08-11T23:58:30.366Z,4.90
